createdAt,value
2018-03-17T00:01:00.690Z,2.80
2018-03-17T00:03:28.382Z,2.80
2018-03-17T00:05:57.005Z,2.70
2018-03-17T00:08:24.493Z,2.70
2018-03-17T00:10:52.021Z,2.60
2018-03-17T00:13:19.541Z,2.60
2018-03-17T00:15:47.830Z,2.60
2018-03-17T00:18:15.310Z,2.50
2018-03-17T00:20:42.869Z,2.50
2018-03-17T00:23:10.359Z,2.50
2018-03-17T00:25:37.866Z,2.50
2018-03-17T00:28:05.414Z,2.40
2018-03-17T00:30:32.936Z,2.40
2018-03-17T00:33:00.453Z,2.40
2018-03-17T00:35:27.979Z,2.40
2018-03-17T00:37:55.660Z,2.40
2018-03-17T00:40:23.173Z,2.30
2018-03-17T00:42:50.775Z,2.30
2018-03-17T00:45:19.053Z,2.30
2018-03-17T00:47:46.570Z,2.30
2018-03-17T04:18:03.083Z,1.70
2018-03-17T04:20:30.579Z,1.70
2018-03-17T04:22:58.871Z,1.70
2018-03-17T04:25:26.429Z,1.70
2018-03-17T04:27:53.930Z,1.70
2018-03-17T04:30:21.609Z,1.70
2018-03-17T04:32:49.314Z,1.70
2018-03-17T04:35:16.952Z,1.80
2018-03-17T04:37:44.434Z,1.70
2018-03-17T04:40:11.951Z,1.80
2018-03-17T04:42:39.652Z,1.80
2018-03-17T04:45:07.188Z,1.80
2018-03-17T04:47:34.687Z,1.80
2018-03-17T04:50:02.208Z,1.80
2018-03-17T04:52:29.870Z,1.80
2018-03-17T04:54:58.142Z,1.70
2018-03-17T04:57:26.421Z,1.70
2018-03-17T04:59:54.802Z,1.70
2018-03-17T05:02:22.505Z,1.70
2018-03-17T05:04:50.005Z,1.70
2018-03-17T05:07:19.130Z,1.60
2018-03-17T05:09:46.641Z,1.60
2018-03-17T05:12:14.134Z,1.60
2018-03-17T05:14:42.432Z,1.60
2018-03-17T05:17:09.946Z,1.60
2018-03-17T05:19:37.636Z,1.60
2018-03-17T05:22:05.144Z,1.60
2018-03-17T05:24:32.674Z,1.60
2018-03-17T05:27:00.178Z,1.60
2018-03-17T05:29:27.717Z,1.60
2018-03-17T05:31:55.212Z,1.50
2018-03-17T05:34:23.597Z,1.60
2018-03-17T05:36:51.291Z,1.50
2018-03-17T05:39:18.963Z,1.60
2018-03-17T05:41:47.198Z,1.60
2018-03-17T05:44:15.464Z,1.60
2018-03-17T05:46:42.995Z,1.60
2018-03-17T05:49:10.596Z,1.70
2018-03-17T05:51:38.113Z,1.70
2018-03-17T05:54:05.609Z,1.70
2018-03-17T05:56:33.890Z,1.80
2018-03-17T05:59:01.556Z,1.80
2018-03-17T06:01:29.071Z,1.90
2018-03-17T06:03:56.569Z,1.90
2018-03-17T06:06:24.080Z,2.00
2018-03-17T06:08:51.609Z,2.10
2018-03-17T06:11:19.124Z,2.10
2018-03-17T06:13:47.519Z,2.20
2018-03-17T06:16:15.058Z,2.20
2018-03-17T06:18:42.575Z,2.30
2018-03-17T06:21:10.103Z,2.40
2018-03-17T06:23:37.790Z,2.40
2018-03-17T06:26:05.419Z,2.50
2018-03-17T06:28:32.906Z,2.60
2018-03-17T06:31:00.436Z,2.60
2018-03-17T06:33:27.943Z,2.70
2018-03-17T06:35:55.436Z,2.80
2018-03-17T06:38:22.972Z,2.90
2018-03-17T06:40:50.573Z,2.90
2018-03-17T06:43:18.229Z,3.10
2018-03-17T06:45:46.364Z,3.20
2018-03-17T06:48:13.910Z,3.20
2018-03-17T06:50:41.409Z,3.20
2018-03-17T06:53:09.809Z,3.10
2018-03-17T06:55:37.309Z,3.10
2018-03-17T06:58:04.803Z,3.00
2018-03-17T07:00:33.208Z,3.30
2018-03-17T07:03:00.697Z,3.30
2018-03-17T07:05:28.288Z,3.50
2018-03-17T07:07:55.963Z,3.70
2018-03-17T07:10:23.514Z,4.10
2018-03-17T07:12:51.780Z,4.50
2018-03-17T07:15:19.290Z,4.50
2018-03-17T07:17:46.821Z,5.00
2018-03-17T07:20:14.340Z,5.20
2018-03-17T07:22:41.850Z,5.60
2018-03-17T07:25:09.368Z,5.90
2018-03-17T07:27:36.865Z,6.00
2018-03-17T07:30:04.370Z,6.10
2018-03-17T07:32:31.879Z,6.20
2018-03-17T07:34:59.373Z,6.10
2018-03-17T07:37:26.917Z,6.00
2018-03-17T07:39:54.423Z,5.70
2018-03-17T07:42:22.028Z,5.70
2018-03-17T07:44:49.530Z,5.70
2018-03-17T07:47:18.173Z,5.60
2018-03-17T07:49:45.693Z,5.70
2018-03-17T07:52:13.942Z,5.70
2018-03-17T07:54:41.723Z,5.70
2018-03-17T07:57:09.226Z,5.70
2018-03-17T07:59:36.723Z,5.70
2018-03-17T08:02:04.239Z,5.80
2018-03-17T08:04:31.763Z,5.80
2018-03-17T08:06:59.261Z,5.80
2018-03-17T08:09:26.776Z,5.80
2018-03-17T08:11:54.302Z,5.70
2018-03-17T08:14:21.834Z,5.60
2018-03-17T08:16:57.881Z,5.60
2018-03-17T08:19:25.591Z,5.60
2018-03-17T08:21:53.134Z,5.60
2018-03-17T08:24:20.730Z,5.60
2018-03-17T08:26:48.765Z,5.60
2018-03-17T08:29:16.250Z,5.50
2018-03-17T08:31:43.759Z,5.50
2018-03-17T08:34:11.293Z,5.50
2018-03-17T08:36:38.782Z,5.40
2018-03-17T08:39:06.353Z,5.40
2018-03-17T08:41:33.971Z,5.50
2018-03-17T08:44:02.296Z,5.80
2018-03-17T08:46:29.838Z,5.80
2018-03-17T08:48:57.517Z,6.00
2018-03-17T08:51:25.037Z,6.00
2018-03-17T08:53:52.612Z,6.00
2018-03-17T08:56:20.137Z,6.10
2018-03-17T08:58:47.678Z,6.20
2018-03-17T09:01:15.185Z,6.30
2018-03-17T09:03:42.742Z,6.30
2018-03-17T09:06:10.250Z,6.30
2018-03-17T09:08:37.820Z,6.20
2018-03-17T09:11:06.264Z,6.30
2018-03-17T09:13:33.779Z,6.30
2018-03-17T09:16:02.281Z,6.30
2018-03-17T09:18:29.810Z,6.30
2018-03-17T09:20:57.365Z,6.20
2018-03-17T09:23:25.019Z,6.30
2018-03-17T09:25:52.743Z,6.30
2018-03-17T09:28:20.855Z,6.20
2018-03-17T09:30:48.398Z,6.20
2018-03-17T09:33:15.896Z,6.10
2018-03-17T09:35:43.384Z,6.10
2018-03-17T09:38:10.909Z,6.10
2018-03-17T09:40:39.206Z,6.20
2018-03-17T09:43:06.845Z,6.20
2018-03-17T09:45:35.141Z,6.10
2018-03-17T09:48:03.549Z,6.10
2018-03-17T09:50:31.436Z,6.10
2018-03-17T09:52:58.961Z,6.10
2018-03-17T09:55:26.802Z,6.20
2018-03-17T09:57:54.361Z,6.30
2018-03-17T10:00:22.669Z,6.10
2018-03-17T10:02:50.438Z,6.10
2018-03-17T10:05:18.014Z,6.10
2018-03-17T10:07:45.661Z,6.20
2018-03-17T10:10:13.525Z,6.20
2018-03-17T10:12:41.151Z,6.20
2018-03-17T10:15:08.670Z,6.20
2018-03-17T10:17:36.404Z,6.20
2018-03-17T10:20:04.241Z,6.00
2018-03-17T10:22:31.793Z,6.00
2018-03-17T10:24:59.305Z,6.00
2018-03-17T10:27:27.228Z,5.80
2018-03-17T10:29:54.733Z,5.70
2018-03-17T10:32:22.331Z,5.60
2018-03-17T10:34:49.825Z,5.60
2018-03-17T10:37:17.391Z,5.50
2018-03-17T10:39:44.881Z,5.40
2018-03-17T10:42:12.502Z,5.40
2018-03-17T10:44:40.056Z,5.30
2018-03-17T10:47:07.606Z,5.30
2018-03-17T10:49:35.123Z,5.30
2018-03-17T10:52:02.754Z,5.20
2018-03-17T10:54:30.330Z,5.10
2018-03-17T10:56:58.050Z,5.10
2018-03-17T10:59:25.620Z,5.10
2018-03-17T11:01:53.169Z,5.10
2018-03-17T11:04:20.728Z,5.10
2018-03-17T11:06:48.273Z,5.10
2018-03-17T11:09:16.287Z,5.00
2018-03-17T11:11:43.848Z,4.90
2018-03-17T11:14:11.357Z,4.90
2018-03-17T11:16:39.663Z,4.80
2018-03-17T11:19:07.181Z,4.80
2018-03-17T11:21:34.708Z,5.80
2018-03-17T11:24:02.228Z,6.10
2018-03-17T11:26:29.991Z,5.60
2018-03-17T11:28:57.550Z,5.30
2018-03-17T11:31:25.110Z,5.10
2018-03-17T11:33:52.843Z,4.90
2018-03-17T11:36:20.908Z,4.80
2018-03-17T11:38:49.224Z,4.70
2018-03-17T11:41:17.009Z,4.60
2018-03-17T11:43:47.555Z,4.50
2018-03-17T11:46:15.074Z,4.50
2018-03-17T11:48:42.619Z,4.50
2018-03-17T11:51:10.232Z,4.50
2018-03-17T11:53:38.509Z,4.30
2018-03-17T11:56:06.559Z,4.30
2018-03-17T11:58:34.087Z,4.40
2018-03-17T12:01:02.808Z,4.40
2018-03-17T12:03:30.320Z,4.50
2018-03-17T12:05:59.395Z,4.50
2018-03-17T12:08:27.093Z,4.50
2018-03-17T12:10:54.614Z,4.50
2018-03-17T12:13:22.882Z,4.40
2018-03-17T12:15:50.380Z,4.40
2018-03-17T12:18:17.931Z,4.40
2018-03-17T12:20:45.495Z,4.40
2018-03-17T12:23:13.813Z,4.40
2018-03-17T12:25:41.339Z,4.40
2018-03-17T12:28:08.876Z,4.50
2018-03-17T12:30:36.413Z,4.50
2018-03-17T12:33:04.123Z,4.50
2018-03-17T12:35:31.668Z,4.50
2018-03-17T12:37:59.442Z,4.50
2018-03-17T12:40:27.013Z,4.50
2018-03-17T12:42:54.522Z,4.50
2018-03-17T12:45:23.981Z,4.40
2018-03-17T12:47:51.687Z,4.40
2018-03-17T12:50:19.224Z,4.40
2018-03-17T12:52:46.775Z,4.40
2018-03-17T12:55:14.404Z,4.40
2018-03-17T12:57:42.243Z,4.50
2018-03-17T13:00:10.502Z,4.50
2018-03-17T13:02:38.152Z,4.50
2018-03-17T13:05:05.873Z,4.40
2018-03-17T13:07:33.442Z,4.50
2018-03-17T13:10:00.992Z,4.40
2018-03-17T13:12:28.536Z,4.30
2018-03-17T13:14:56.071Z,4.30
2018-03-17T13:17:23.596Z,4.20
2018-03-17T13:19:51.178Z,4.20
2018-03-17T13:22:18.695Z,4.20
2018-03-17T13:24:46.225Z,4.10
2018-03-17T13:30:17.456Z,4.20
2018-03-17T13:32:52.723Z,4.20
2018-03-17T13:35:20.425Z,4.10
2018-03-17T13:37:47.968Z,4.10
2018-03-17T13:40:27.280Z,4.20
2018-03-17T13:42:54.770Z,4.10
2018-03-17T13:45:22.306Z,4.00
2018-03-17T13:47:49.912Z,4.10
2018-03-17T13:50:17.440Z,4.00
2018-03-17T13:52:45.016Z,3.90
2018-03-17T13:55:12.529Z,3.90
2018-03-17T13:57:40.048Z,3.90
2018-03-17T14:00:07.580Z,3.90
2018-03-17T14:02:35.130Z,3.90
2018-03-17T14:05:02.665Z,3.90
2018-03-17T14:07:30.154Z,3.80
2018-03-17T14:09:57.662Z,3.80
2018-03-17T14:12:25.191Z,3.80
2018-03-17T14:14:52.939Z,3.80
2018-03-17T14:17:20.484Z,3.90
2018-03-17T14:19:48.755Z,3.90
2018-03-17T14:22:16.370Z,3.90
2018-03-17T14:24:43.882Z,3.90
2018-03-17T14:27:11.492Z,3.90
2018-03-17T14:29:39.927Z,3.90
2018-03-17T14:32:07.559Z,4.00
2018-03-17T14:34:35.335Z,3.90
2018-03-17T14:37:02.882Z,3.90
2018-03-17T14:39:31.644Z,3.80
2018-03-17T14:41:59.118Z,3.80
2018-03-17T14:44:26.624Z,3.80
2018-03-17T14:46:54.162Z,3.80
2018-03-17T14:49:21.662Z,3.80
2018-03-17T14:51:49.255Z,3.80
2018-03-17T14:54:16.839Z,3.80
2018-03-17T14:56:44.546Z,3.80
2018-03-17T14:59:12.054Z,3.80
2018-03-17T15:01:40.701Z,3.70
2018-03-17T15:04:08.309Z,3.70
2018-03-17T15:06:35.823Z,3.70
2018-03-17T15:09:03.454Z,3.70
2018-03-17T15:11:31.017Z,3.60
2018-03-17T15:13:58.525Z,3.50
2018-03-17T15:16:26.806Z,3.50
2018-03-17T15:18:54.402Z,3.50
2018-03-17T15:21:21.984Z,3.50
2018-03-17T15:23:49.503Z,3.50
2018-03-17T15:26:17.470Z,3.50
2018-03-17T15:28:44.989Z,3.50
2018-03-17T15:31:12.918Z,3.50
2018-03-17T15:33:40.439Z,3.40
2018-03-17T15:36:07.988Z,3.40
2018-03-17T15:38:35.565Z,3.40
2018-03-17T15:41:03.971Z,3.30
2018-03-17T15:43:31.512Z,3.30
2018-03-17T15:45:59.032Z,3.20
2018-03-17T15:48:26.561Z,3.20
2018-03-17T15:50:54.146Z,3.20
2018-03-17T15:53:22.481Z,3.10
2018-03-17T15:55:49.997Z,3.10
2018-03-17T15:58:17.545Z,3.10
2018-03-17T16:00:45.163Z,3.10
2018-03-17T16:03:12.704Z,3.10
2018-03-17T16:05:40.245Z,3.00
2018-03-17T16:08:07.972Z,3.00
2018-03-17T16:10:35.505Z,3.00
2018-03-17T16:13:03.388Z,3.00
2018-03-17T16:15:30.923Z,3.00
2018-03-17T16:17:58.511Z,3.00
2018-03-17T16:20:26.039Z,2.90
2018-03-17T16:22:53.753Z,2.90
2018-03-17T16:25:21.319Z,3.00
2018-03-17T16:27:48.867Z,3.00
2018-03-17T16:30:17.064Z,3.00
2018-03-17T16:32:44.984Z,3.00
2018-03-17T16:35:12.627Z,3.00
2018-03-17T16:37:40.238Z,3.00
2018-03-17T16:40:08.526Z,3.00
2018-03-17T16:42:36.038Z,3.00
2018-03-17T16:45:03.648Z,3.00
2018-03-17T16:47:31.471Z,3.00
2018-03-17T16:49:59.233Z,2.90
2018-03-17T16:52:26.786Z,2.90
2018-03-17T16:54:54.431Z,2.90
2018-03-17T16:57:22.196Z,2.90
2018-03-17T16:59:49.851Z,3.00
2018-03-17T17:02:17.823Z,2.90
2018-03-17T17:04:45.395Z,2.80
2018-03-17T17:07:12.976Z,2.90
2018-03-17T17:09:40.490Z,2.90
2018-03-17T17:12:08.270Z,2.90
2018-03-17T17:14:35.814Z,2.90
2018-03-17T17:17:05.079Z,3.00
2018-03-17T17:19:32.663Z,3.10
2018-03-17T17:22:00.190Z,3.20
2018-03-17T17:24:28.492Z,3.20
2018-03-17T17:26:56.820Z,3.30
2018-03-17T17:29:24.383Z,3.20
2018-03-17T17:31:51.956Z,3.20
2018-03-17T17:34:19.540Z,3.20
2018-03-17T17:36:47.285Z,3.20
2018-03-17T17:39:14.904Z,3.30
2018-03-17T17:41:42.856Z,3.30
2018-03-17T17:44:10.381Z,3.20
2018-03-17T17:46:38.806Z,3.20
2018-03-17T17:49:06.571Z,3.20
2018-03-17T17:51:34.128Z,3.20
2018-03-17T17:54:01.900Z,3.00
2018-03-17T17:56:29.602Z,2.90
2018-03-17T17:58:57.152Z,3.00
2018-03-17T18:01:24.666Z,2.90
2018-03-17T18:03:52.232Z,2.80
2018-03-17T18:06:19.768Z,2.80
2018-03-17T18:08:47.367Z,2.80
2018-03-17T18:11:14.903Z,2.80
2018-03-17T18:13:42.891Z,2.80
2018-03-17T18:16:10.443Z,2.80
2018-03-17T18:18:37.952Z,2.70
2018-03-17T18:21:06.244Z,2.70
2018-03-17T18:23:34.663Z,2.60
2018-03-17T18:26:02.321Z,2.60
2018-03-17T18:28:29.840Z,2.50
2018-03-17T18:30:57.358Z,2.50
2018-03-17T18:33:25.012Z,2.30
2018-03-17T18:35:52.766Z,2.30
2018-03-17T18:38:20.426Z,2.30
2018-03-17T18:40:47.985Z,2.20
2018-03-17T18:43:15.931Z,2.10
2018-03-17T18:45:43.453Z,2.00
2018-03-17T18:48:11.423Z,1.90
2018-03-17T18:50:39.003Z,1.70
2018-03-17T18:53:07.309Z,1.60
2018-03-17T18:55:34.910Z,1.60
2018-03-17T18:58:03.414Z,1.50
2018-03-17T19:00:30.898Z,1.40
2018-03-17T19:02:58.477Z,1.40
2018-03-17T19:05:26.080Z,1.40
2018-03-17T19:07:53.576Z,1.40
2018-03-17T19:10:21.629Z,1.30
2018-03-17T19:12:49.900Z,1.30
2018-03-17T19:15:18.198Z,1.30
2018-03-17T19:17:45.758Z,1.30
2018-03-17T19:20:13.326Z,1.30
2018-03-17T19:22:40.870Z,1.20
2018-03-17T19:25:09.199Z,1.20
2018-03-17T19:27:36.811Z,1.20
2018-03-17T19:30:04.342Z,1.10
2018-03-17T19:32:31.932Z,1.20
2018-03-17T19:34:59.491Z,1.10
2018-03-17T19:37:27.076Z,1.00
2018-03-17T19:39:54.629Z,1.00
2018-03-17T19:42:22.173Z,1.00
2018-03-17T19:44:49.715Z,0.90
2018-03-17T19:47:17.377Z,0.90
2018-03-17T19:49:44.961Z,0.80
2018-03-17T19:52:12.590Z,0.90
2018-03-17T19:54:40.597Z,0.80
2018-03-17T19:57:08.369Z,0.90
2018-03-17T19:59:36.335Z,0.80
2018-03-17T20:02:04.100Z,0.80
2018-03-17T20:04:31.599Z,0.80
2018-03-17T20:06:59.148Z,0.80
2018-03-17T20:09:26.727Z,0.80
2018-03-17T20:11:54.435Z,0.70
2018-03-17T20:14:22.135Z,0.70
2018-03-17T20:16:49.833Z,0.70
2018-03-17T20:19:18.226Z,0.70
2018-03-17T20:21:45.844Z,0.60
2018-03-17T20:24:13.624Z,0.60
2018-03-17T20:26:42.723Z,0.50
2018-03-17T20:29:10.320Z,0.50
2018-03-17T20:31:37.836Z,0.50
2018-03-17T20:34:05.396Z,0.50
2018-03-17T20:36:33.737Z,0.40
2018-03-17T20:39:01.257Z,0.40
2018-03-17T20:41:29.070Z,0.30
2018-03-17T20:43:56.594Z,0.30
2018-03-17T20:46:25.053Z,0.30
2018-03-17T20:48:52.549Z,0.30
2018-03-17T20:51:20.140Z,0.30
2018-03-17T20:53:47.655Z,0.20
2018-03-17T20:56:15.633Z,0.10
2018-03-17T20:58:43.218Z,0.10
2018-03-17T21:01:10.802Z,0.10
2018-03-17T21:03:38.321Z,0.00
2018-03-17T21:06:06.169Z,-0.10
2018-03-17T21:08:33.728Z,0.00
2018-03-17T21:11:02.086Z,-0.10
2018-03-17T21:13:29.657Z,-0.10
2018-03-17T21:15:57.962Z,-0.10
2018-03-17T21:18:25.513Z,-0.10
2018-03-17T21:20:53.361Z,-0.10
2018-03-17T21:23:21.790Z,-0.20
2018-03-17T21:25:49.333Z,-0.20
2018-03-17T21:28:16.872Z,-0.20
2018-03-17T21:30:44.441Z,-0.20
2018-03-17T21:33:11.962Z,-0.10
2018-03-17T21:35:39.539Z,-0.20
2018-03-17T21:38:07.049Z,-0.30
2018-03-17T21:40:34.641Z,-0.30
2018-03-17T21:43:02.144Z,-0.30
2018-03-17T21:45:30.081Z,-0.30
2018-03-17T21:47:58.499Z,-0.30
2018-03-17T21:50:26.090Z,-0.30
2018-03-17T21:52:53.641Z,-0.30
2018-03-17T21:55:21.267Z,-0.30
2018-03-17T21:57:48.795Z,-0.30
2018-03-17T22:00:17.076Z,-0.30
2018-03-17T22:02:44.636Z,-0.40
2018-03-17T22:05:12.147Z,-0.40
2018-03-17T22:07:39.681Z,-0.40
2018-03-17T22:10:07.325Z,-0.40
2018-03-17T22:12:34.888Z,-0.40
2018-03-17T22:15:02.395Z,-0.40
2018-03-17T22:17:30.094Z,-0.40
2018-03-17T22:19:58.528Z,-0.40
2018-03-17T22:22:26.039Z,-0.40
2018-03-17T22:24:54.341Z,-0.40
2018-03-17T22:27:22.167Z,-0.40
2018-03-17T22:29:50.572Z,-0.40
2018-03-17T22:32:18.106Z,-0.40
2018-03-17T22:34:45.636Z,-0.30
2018-03-17T22:37:13.126Z,-0.30
2018-03-17T22:39:40.671Z,-0.30
2018-03-17T22:42:08.159Z,-0.30
2018-03-17T22:44:35.794Z,-0.30
2018-03-17T22:47:04.089Z,-0.30
2018-03-17T22:49:32.345Z,-0.40
2018-03-17T22:51:59.893Z,-0.40
2018-03-17T22:54:27.399Z,-0.40
2018-03-17T22:56:54.935Z,-0.40
2018-03-17T22:59:23.211Z,-0.50
2018-03-17T23:01:51.511Z,-0.50
2018-03-17T23:04:19.415Z,-0.50
2018-03-17T23:06:46.942Z,-0.50
2018-03-17T23:09:14.468Z,-0.50
2018-03-17T23:11:41.959Z,-0.60
2018-03-17T23:14:09.518Z,-0.60
2018-03-17T23:16:37.022Z,-0.60
2018-03-17T23:19:04.599Z,-0.60
2018-03-17T23:21:32.120Z,-0.60
2018-03-17T23:23:59.681Z,-0.50
2018-03-17T23:26:27.189Z,-0.60
2018-03-17T23:28:54.746Z,-0.70
2018-03-17T23:31:22.436Z,-0.70
2018-03-17T23:33:49.935Z,-0.70
2018-03-17T23:36:17.478Z,-0.70
2018-03-17T23:38:44.980Z,-0.70
2018-03-17T23:41:13.271Z,-0.70
2018-03-17T23:43:40.784Z,-0.70
2018-03-17T23:46:08.288Z,-0.70
2018-03-17T23:48:35.879Z,-0.80
2018-03-17T23:51:03.404Z,-0.80
2018-03-17T23:53:30.909Z,-0.70
2018-03-17T23:55:58.423Z,-0.70
2018-03-17T23:58:26.351Z,-0.70
